Time;durP1;ratioP1;P1;durP2;ratioP2;P2;SDS_P1;SDS_P2;PMS_P1;PMS_P2;Temp;Humidity;BMP_temperature;BMP_pressure;BME280_temperature;BME280_humidity;BME280_pressure;Samples;Min_cycle;Max_cycle;Signal;HPM_P1;HPM_P2
2021/07/16 00:02:02;;;;;;;4.53;2.60;;;23.90;62.90;;;;;;4948593;29;20196;-48
2021/07/16 00:04:28;;;;;;;4.00;2.63;;;23.90;63.00;;;;;;4948213;28;20188;-48
2021/07/16 00:06:53;;;;;;;3.37;2.67;;;23.90;62.90;;;;;;4948878;29;20454;-47
2021/07/16 00:09:19;;;;;;;6.17;2.83;;;23.90;62.90;;;;;;4948382;28;20566;-49
2021/07/16 00:11:45;;;;;;;3.67;1.73;;;23.90;62.90;;;;;;4950527;28;20269;-47
2021/07/16 00:14:10;;;;;;;5.23;1.90;;;23.90;62.90;;;;;;4952054;28;20723;-50
2021/07/16 00:16:38;;;;;;;2.40;2.20;;;23.90;62.80;;;;;;4932267;29;20199;-47
2021/07/16 00:19:05;;;;;;;4.43;2.00;;;23.90;63.70;;;;;;4950277;28;20250;-53
2021/07/16 00:21:31;;;;;;;4.73;2.10;;;23.90;62.70;;;;;;4950407;28;20478;-47
2021/07/16 00:23:56;;;;;;;4.90;2.17;;;23.90;62.60;;;;;;4951647;28;20932;-47
2021/07/16 00:26:22;;;;;;;2.77;2.10;;;23.90;62.50;;;;;;4948269;28;20208;-48
2021/07/16 00:28:48;;;;;;;6.63;2.50;;;23.90;62.70;;;;;;4952205;28;20196;-48
2021/07/16 00:31:13;;;;;;;1.80;1.70;;;24.00;62.60;;;;;;4947696;28;20243;-51
2021/07/16 00:33:39;;;;;;;3.73;2.20;;;24.00;62.50;;;;;;4948613;28;20238;-47
2021/07/16 00:36:05;;;;;;;3.47;3.17;;;24.00;62.60;;;;;;4948169;28;20332;-51
2021/07/16 00:38:31;;;;;;;7.33;3.17;;;23.90;62.40;;;;;;4951313;28;20720;-47
2021/07/16 00:40:57;;;;;;;6.00;3.50;;;23.90;62.70;;;;;;4950491;29;20731;-47
2021/07/16 00:43:23;;;;;;;3.80;3.30;;;23.90;62.90;;;;;;4950756;28;20447;-48
2021/07/16 00:45:48;;;;;;;9.10;2.50;;;23.90;62.90;;;;;;4952325;28;20262;-48
2021/07/16 00:48:14;;;;;;;5.40;3.17;;;23.90;63.00;;;;;;4954933;28;20454;-47
2021/07/16 00:50:41;;;;;;;3.13;2.80;;;24.00;63.20;;;;;;4954710;29;20319;-47
2021/07/16 00:53:09;;;;;;;3.03;2.43;;;23.90;63.00;;;;;;4948365;28;20290;-48
2021/07/16 00:55:36;;;;;;;3.33;2.57;;;24.00;63.10;;;;;;4953386;28;20451;-47
2021/07/16 00:58:03;;;;;;;7.07;5.60;;;24.00;62.90;;;;;;4950117;28;20507;-48
2021/07/16 01:00:29;;;;;;;7.93;7.17;;;24.00;62.90;;;;;;4953910;28;20799;-52
2021/07/16 01:02:55;;;;;;;7.80;5.93;;;24.00;62.60;;;;;;4948301;28;20454;-48
2021/07/16 01:05:22;;;;;;;6.97;5.97;;;23.90;62.60;;;;;;4954043;28;20731;-48
2021/07/16 01:07:49;;;;;;;6.60;5.67;;;23.90;63.00;;;;;;4954249;28;20466;-49
2021/07/16 01:10:16;;;;;;;6.90;6.30;;;23.90;63.30;;;;;;4954954;29;20490;-48
2021/07/16 01:12:43;;;;;;;7.07;6.37;;;23.90;63.10;;;;;;4955201;28;20448;-48
2021/07/16 01:15:11;;;;;;;11.83;10.67;;;23.90;63.10;;;;;;4950010;28;20447;-50
2021/07/16 01:17:37;;;;;;;11.80;8.90;;;23.90;62.80;;;;;;4952001;28;20471;-49
2021/07/16 01:20:06;;;;;;;10.90;9.80;;;23.90;62.70;;;;;;4952689;28;20451;-49
2021/07/16 01:22:33;;;;;;;11.30;10.10;;;23.90;62.70;;;;;;4953499;28;20251;-48
2021/07/16 01:25:02;;;;;;;9.10;8.20;;;23.90;62.70;;;;;;4953612;28;20448;-49
2021/07/16 01:27:31;;;;;;;10.07;9.10;;;23.90;62.80;;;;;;4952610;28;20816;-48
2021/07/16 01:29:58;;;;;;;12.67;11.37;;;23.90;62.90;;;;;;4947992;28;20442;-47
2021/07/16 01:32:24;;;;;;;10.93;9.93;;;23.90;62.90;;;;;;4954462;28;20943;-47
2021/07/16 01:34:50;;;;;;;12.00;10.80;;;23.90;62.80;;;;;;4949896;28;20487;-45
2021/07/16 01:37:16;;;;;;;10.30;8.70;;;23.90;63.20;;;;;;4954059;29;20459;-47
2021/07/16 01:39:42;;;;;;;9.03;8.23;;;23.90;63.00;;;;;;4952717;28;20565;-48
2021/07/16 01:42:09;;;;;;;11.47;10.47;;;23.90;63.20;;;;;;4951370;28;20912;-48
2021/07/16 01:44:37;;;;;;;15.37;11.90;;;23.90;63.10;;;;;;4951259;28;20519;-48
2021/07/16 01:47:03;;;;;;;14.13;12.70;;;23.90;63.10;;;;;;4950803;28;20459;-47
2021/07/16 01:49:29;;;;;;;11.73;10.40;;;23.80;63.40;;;;;;4953775;29;20968;-47
2021/07/16 01:51:55;;;;;;;14.70;10.90;;;23.80;63.60;;;;;;4948203;28;20494;-49
2021/07/16 01:54:21;;;;;;;13.33;11.93;;;23.80;63.80;;;;;;4946752;28;20723;-49
2021/07/16 01:56:46;;;;;;;14.33;9.17;;;23.80;63.70;;;;;;4950232;28;20196;-49
2021/07/16 01:59:13;;;;;;;13.23;11.90;;;23.80;63.40;;;;;;4953236;28;20207;-47
2021/07/16 02:01:39;;;;;;;12.67;10.20;;;23.90;63.50;;;;;;4952500;28;20215;-50
2021/07/16 02:04:04;;;;;;;13.03;11.37;;;23.90;63.40;;;;;;4952059;28;20486;-50
2021/07/16 02:06:30;;;;;;;13.57;12.23;;;23.90;63.20;;;;;;4933173;29;20459;-47
2021/07/16 02:08:57;;;;;;;15.20;13.53;;;23.90;63.30;;;;;;4953090;28;20236;-47
2021/07/16 02:11:23;;;;;;;12.40;11.20;;;23.90;64.10;;;;;;4952077;28;20667;-47
2021/07/16 02:13:50;;;;;;;14.10;12.67;;;23.80;63.30;;;;;;4954221;28;20440;-48
2021/07/16 02:16:17;;;;;;;12.87;11.50;;;23.80;63.50;;;;;;4948817;28;20471;-48
2021/07/16 02:18:48;;;;;;;14.23;12.83;;;23.70;63.70;;;;;;4952521;28;20483;-47
2021/07/16 02:21:14;;;;;;;15.37;13.80;;;23.70;63.90;;;;;;4953542;29;20452;-50
2021/07/16 02:23:39;;;;;;;18.27;12.80;;;23.70;64.00;;;;;;4949907;28;20451;-50
2021/07/16 02:26:05;;;;;;;9.40;8.50;;;23.60;64.10;;;;;;4947775;28;21795;-48
2021/07/16 02:28:31;;;;;;;11.30;10.30;;;23.60;64.20;;;;;;4951178;28;20204;-47
2021/07/16 02:31:02;;;;;;;13.70;12.13;;;23.60;64.30;;;;;;4945671;28;20250;-48
2021/07/16 02:33:28;;;;;;;13.33;11.87;;;23.60;64.10;;;;;;4952313;28;20487;-48
2021/07/16 02:35:54;;;;;;;12.47;11.23;;;23.60;64.10;;;;;;4950669;28;20974;-48
2021/07/16 02:38:22;;;;;;;11.60;10.40;;;23.60;64.10;;;;;;4952375;28;20934;-48
2021/07/16 02:40:47;;;;;;;11.57;10.37;;;23.60;64.50;;;;;;4952840;28;20498;-47
2021/07/16 02:43:14;;;;;;;10.13;9.10;;;23.60;64.50;;;;;;4953962;29;20797;-48
2021/07/16 02:45:40;;;;;;;9.90;9.00;;;23.60;64.40;;;;;;4947384;28;20200;-48
2021/07/16 02:48:06;;;;;;;8.40;7.60;;;23.60;64.50;;;;;;4948117;28;20448;-53
2021/07/16 02:50:35;;;;;;;10.57;9.30;;;23.60;64.30;;;;;;4949182;28;20486;-48
2021/07/16 02:53:01;;;;;;;9.00;7.40;;;23.60;64.20;;;;;;4948962;28;20259;-49
2021/07/16 02:55:26;;;;;;;10.80;9.10;;;23.60;64.10;;;;;;4947411;28;20441;-47
2021/07/16 02:57:52;;;;;;;9.90;8.17;;;23.60;64.10;;;;;;4945292;28;20255;-51
2021/07/16 03:00:21;;;;;;;9.37;8.47;;;23.70;64.00;;;;;;4946151;28;20208;-49
2021/07/16 03:02:48;;;;;;;11.20;7.43;;;23.70;64.00;;;;;;4951415;29;20200;-49
2021/07/16 03:05:17;;;;;;;10.60;9.60;;;23.70;63.80;;;;;;4950940;28;21002;-48
2021/07/16 03:07:43;;;;;;;10.43;9.37;;;23.70;63.80;;;;;;4953856;28;20954;-47
2021/07/16 03:10:10;;;;;;;12.20;10.30;;;23.70;63.60;;;;;;4948484;28;20459;-47
2021/07/16 03:12:40;;;;;;;11.10;9.97;;;23.70;63.70;;;;;;4952420;28;20270;-49
2021/07/16 03:15:17;;;;;;;10.67;9.30;;;23.70;63.60;;;;;;4948094;28;20443;-48
2021/07/16 03:17:42;;;;;;;11.60;9.30;;;23.70;63.70;;;;;;4946758;29;20534;-49
2021/07/16 03:20:11;;;;;;;8.60;7.80;;;23.70;63.50;;;;;;4947055;28;20943;-48
2021/07/16 03:22:36;;;;;;;14.10;12.43;;;23.70;63.80;;;;;;4951451;28;20560;-48
2021/07/16 03:25:04;;;;;;;11.97;9.90;;;23.70;64.50;;;;;;4948513;28;20429;-48
2021/07/16 03:27:30;;;;;;;18.13;13.50;;;23.70;63.50;;;;;;4949468;28;20287;-47
2021/07/16 03:29:55;;;;;;;13.43;12.03;;;23.70;63.60;;;;;;4949881;28;20522;-47
2021/07/16 03:32:21;;;;;;;16.33;9.67;;;23.70;63.70;;;;;;4948538;28;20639;-47
2021/07/16 03:34:46;;;;;;;13.97;12.57;;;23.70;63.80;;;;;;4948663;28;20195;-47
2021/07/16 03:37:12;;;;;;;11.33;10.23;;;23.70;64.10;;;;;;4949886;28;20196;-48
2021/07/16 03:39:37;;;;;;;16.97;12.90;;;23.70;64.10;;;;;;4947991;28;20278;-47
2021/07/16 03:42:03;;;;;;;11.63;10.53;;;23.70;64.10;;;;;;4946917;28;20551;-47
2021/07/16 03:44:30;;;;;;;13.97;12.23;;;23.70;64.00;;;;;;4950838;28;20206;-47
2021/07/16 03:46:56;;;;;;;13.53;12.17;;;23.70;64.00;;;;;;4944360;28;20455;-48
2021/07/16 03:49:22;;;;;;;14.07;11.97;;;23.60;64.10;;;;;;4951183;28;20451;-52
2021/07/16 03:51:47;;;;;;;14.70;12.20;;;23.60;64.40;;;;;;4947055;28;20981;-48
2021/07/16 03:54:13;;;;;;;12.40;11.17;;;23.60;64.60;;;;;;4945619;28;20196;-51
2021/07/16 03:56:38;;;;;;;17.47;13.80;;;23.60;64.60;;;;;;4949357;28;20196;-51
2021/07/16 03:59:04;;;;;;;17.20;11.40;;;23.60;64.60;;;;;;4947426;28;20611;-46
2021/07/16 04:01:30;;;;;;;12.90;11.53;;;23.60;64.40;;;;;;4946096;28;20223;-46
2021/07/16 04:03:57;;;;;;;12.73;11.43;;;23.60;64.40;;;;;;4948005;28;20251;-46
2021/07/16 04:06:22;;;;;;;12.50;11.20;;;23.60;64.30;;;;;;4950439;28;20242;-46
2021/07/16 04:08:49;;;;;;;12.07;10.00;;;23.60;64.10;;;;;;4951547;28;20468;-46
2021/07/16 04:11:15;;;;;;;12.37;11.07;;;23.60;64.20;;;;;;4943883;28;20224;-48
2021/07/16 04:13:41;;;;;;;7.80;7.10;;;23.50;64.30;;;;;;4947907;28;20447;-49
2021/07/16 04:16:06;;;;;;;11.53;10.20;;;23.60;64.30;;;;;;4947940;28;20250;-46
2021/07/16 04:18:32;;;;;;;12.07;10.93;;;23.60;64.30;;;;;;4952258;28;20306;-47
2021/07/16 04:20:57;;;;;;;16.80;11.47;;;23.60;64.00;;;;;;4954970;28;20202;-49
2021/07/16 04:23:23;;;;;;;13.93;12.47;;;23.60;63.90;;;;;;4949685;28;20283;-48
2021/07/16 04:25:49;;;;;;;14.73;13.17;;;23.50;64.00;;;;;;4953934;28;20199;-46
2021/07/16 04:28:15;;;;;;;13.70;12.40;;;23.50;64.30;;;;;;4950986;28;20192;-50
2021/07/16 04:30:40;;;;;;;14.40;12.90;;;23.50;64.40;;;;;;4953100;28;20790;-48
2021/07/16 04:33:06;;;;;;;16.37;13.40;;;23.50;64.50;;;;;;4951752;28;20224;-47
2021/07/16 04:35:32;;;;;;;15.00;13.40;;;23.40;64.50;;;;;;4952546;28;20203;-48
2021/07/16 04:37:58;;;;;;;13.50;12.20;;;23.30;64.70;;;;;;4955690;29;20452;-49
2021/07/16 04:40:25;;;;;;;14.83;13.40;;;23.20;65.00;;;;;;4953192;28;20203;-46
2021/07/16 04:42:54;;;;;;;14.63;13.20;;;23.10;65.30;;;;;;4951581;28;20216;-49
2021/07/16 04:45:20;;;;;;;13.93;11.83;;;23.00;66.40;;;;;;4949458;28;20479;-46
2021/07/16 04:47:46;;;;;;;13.17;11.20;;;22.90;66.10;;;;;;4954818;29;20447;-46
2021/07/16 04:50:14;;;;;;;12.17;10.80;;;22.90;66.20;;;;;;4955382;28;20451;-46
2021/07/16 04:52:45;;;;;;;12.83;11.20;;;22.90;66.20;;;;;;4954879;28;20454;-47
2021/07/16 04:55:13;;;;;;;17.93;13.50;;;22.90;66.40;;;;;;4949365;28;20452;-47
2021/07/16 04:57:39;;;;;;;12.43;10.60;;;22.90;66.50;;;;;;4955201;28;20487;-46
2021/07/16 05:00:06;;;;;;;11.80;10.47;;;22.80;66.60;;;;;;4951717;28;20490;-47
2021/07/16 05:02:32;;;;;;;10.97;9.87;;;22.70;66.60;;;;;;4950321;28;20196;-46
2021/07/16 05:04:57;;;;;;;10.13;9.23;;;22.80;66.90;;;;;;4950847;28;20787;-47
2021/07/16 05:07:23;;;;;;;13.90;10.17;;;22.70;67.00;;;;;;4951481;28;20907;-47
2021/07/16 05:09:49;;;;;;;12.70;9.90;;;22.70;67.00;;;;;;4953810;29;20246;-49
2021/07/16 05:12:14;;;;;;;11.60;10.43;;;22.70;67.10;;;;;;4954382;28;20682;-47
2021/07/16 05:14:40;;;;;;;10.10;9.10;;;22.70;67.20;;;;;;4954723;28;20687;-48
2021/07/16 05:17:05;;;;;;;11.90;9.37;;;22.70;67.20;;;;;;4946949;28;20204;-47
2021/07/16 05:19:31;;;;;;;7.80;7.00;;;22.70;67.50;;;;;;4955473;28;20207;-48
2021/07/16 05:21:57;;;;;;;10.23;8.20;;;22.70;68.00;;;;;;4949786;28;20299;-46
2021/07/16 05:24:23;;;;;;;7.67;6.40;;;22.70;68.90;;;;;;4955862;29;20514;-48
2021/07/16 05:26:49;;;;;;;12.57;10.40;;;22.90;68.20;;;;;;4948701;28;20227;-50
2021/07/16 05:29:14;;;;;;;12.90;10.03;;;23.00;67.60;;;;;;4949853;28;20258;-48
2021/07/16 05:31:40;;;;;;;14.57;9.07;;;23.00;66.90;;;;;;4948729;28;20232;-49
2021/07/16 05:34:05;;;;;;;10.00;9.10;;;23.00;66.70;;;;;;4951791;28;20203;-49
2021/07/16 05:36:31;;;;;;;9.60;8.60;;;23.10;66.70;;;;;;4948531;28;20204;-50
2021/07/16 05:39:02;;;;;;;9.67;8.47;;;23.20;66.20;;;;;;4951483;28;20204;-46
2021/07/16 05:41:28;;;;;;;9.17;8.37;;;23.30;66.10;;;;;;4951338;28;20196;-48
2021/07/16 05:43:53;;;;;;;8.57;7.63;;;23.30;65.80;;;;;;4952703;28;20440;-46
2021/07/16 05:46:19;;;;;;;9.07;8.23;;;23.40;65.40;;;;;;4949479;28;20238;-49
2021/07/16 05:48:46;;;;;;;9.03;8.13;;;23.50;65.20;;;;;;4955271;28;20592;-45
2021/07/16 05:51:12;;;;;;;8.43;7.00;;;23.50;65.10;;;;;;4957601;28;20235;-46
2021/07/16 05:53:38;;;;;;;6.73;6.13;;;23.50;64.90;;;;;;4959518;28;20499;-48
2021/07/16 05:56:04;;;;;;;9.20;7.93;;;23.60;64.70;;;;;;4953912;29;20227;-45
2021/07/16 05:58:29;;;;;;;9.53;7.90;;;23.60;64.60;;;;;;4954290;29;20206;-47
2021/07/16 06:00:55;;;;;;;8.67;7.83;;;23.70;64.70;;;;;;4953476;29;20428;-46
2021/07/16 06:03:22;;;;;;;9.23;8.40;;;23.70;64.60;;;;;;4954676;29;20188;-47
2021/07/16 06:05:47;;;;;;;7.80;6.77;;;23.70;64.50;;;;;;4951223;29;20192;-45
2021/07/16 06:08:13;;;;;;;9.10;8.30;;;23.70;64.50;;;;;;4953950;29;20436;-48
2021/07/16 06:10:38;;;;;;;10.30;9.27;;;23.60;64.40;;;;;;4953784;29;20224;-45
2021/07/16 06:13:04;;;;;;;7.93;7.20;;;23.60;64.60;;;;;;4954484;29;20207;-46
2021/07/16 06:15:30;;;;;;;8.90;7.87;;;23.50;64.80;;;;;;4947849;28;20207;-46
2021/07/16 06:17:55;;;;;;;11.50;9.03;;;23.50;65.00;;;;;;4953213;29;20232;-46
2021/07/16 06:20:21;;;;;;;9.23;8.40;;;23.50;65.30;;;;;;4952218;29;20199;-47
2021/07/16 06:22:47;;;;;;;8.20;7.40;;;23.50;65.60;;;;;;4954122;28;20232;-48
2021/07/16 06:25:14;;;;;;;9.60;8.80;;;23.50;65.50;;;;;;4953120;28;20200;-46
2021/07/16 06:27:40;;;;;;;11.77;10.53;;;23.50;65.80;;;;;;4953960;29;20208;-47
2021/07/16 06:30:07;;;;;;;12.50;11.17;;;23.50;66.10;;;;;;4953086;28;20432;-46
2021/07/16 06:32:33;;;;;;;11.83;10.73;;;23.40;66.80;;;;;;4945240;29;20443;-47
2021/07/16 06:34:58;;;;;;;14.73;11.07;;;23.40;66.90;;;;;;4941539;29;20932;-48
2021/07/16 06:37:24;;;;;;;11.63;10.53;;;23.40;67.00;;;;;;4952700;29;20210;-46
2021/07/16 06:39:50;;;;;;;11.50;10.40;;;23.30;67.10;;;;;;4954606;29;20196;-45
2021/07/16 06:42:15;;;;;;;10.70;9.70;;;23.30;67.10;;;;;;4944739;28;20227;-45
2021/07/16 06:44:41;;;;;;;11.13;9.93;;;23.30;66.90;;;;;;4947792;29;20204;-45
2021/07/16 06:47:06;;;;;;;10.97;10.03;;;23.30;67.10;;;;;;4952670;29;20195;-47
2021/07/16 06:49:32;;;;;;;13.10;11.77;;;23.30;67.10;;;;;;4945942;29;20207;-46
2021/07/16 06:51:59;;;;;;;12.17;10.70;;;23.30;67.20;;;;;;4941437;29;20224;-45
2021/07/16 06:54:25;;;;;;;12.13;10.83;;;23.50;67.20;;;;;;4939398;29;20271;-45
2021/07/16 06:56:52;;;;;;;11.93;10.83;;;23.50;66.80;;;;;;4942082;29;20949;-46
2021/07/16 06:59:18;;;;;;;11.30;10.20;;;23.50;66.50;;;;;;4952478;29;20923;-45
2021/07/16 07:01:44;;;;;;;11.93;10.70;;;23.50;66.30;;;;;;4953778;28;21006;-48
2021/07/16 07:04:09;;;;;;;13.67;10.40;;;23.40;66.00;;;;;;4953405;29;20436;-45
2021/07/16 07:06:35;;;;;;;11.27;10.17;;;23.40;66.40;;;;;;4941594;28;20207;-45
2021/07/16 07:09:02;;;;;;;10.03;9.13;;;23.50;66.20;;;;;;4953654;28;20274;-46
2021/07/16 07:11:27;;;;;;;9.10;8.40;;;23.60;66.50;;;;;;4953439;28;20236;-46
2021/07/16 07:13:53;;;;;;;12.83;8.97;;;23.80;68.70;;;;;;4950776;29;20954;-46
2021/07/16 07:16:18;;;;;;;7.97;7.37;;;23.90;67.40;;;;;;4941468;29;20215;-46
2021/07/16 07:18:44;;;;;;;8.30;7.60;;;24.10;67.10;;;;;;4947525;29;20231;-47
2021/07/16 07:21:11;;;;;;;8.70;7.20;;;24.30;65.40;;;;;;4953414;29;20664;-49
2021/07/16 07:23:36;;;;;;;8.00;7.20;;;24.50;64.80;;;;;;4947193;28;20192;-45
2021/07/16 07:26:02;;;;;;;7.60;6.80;;;24.70;64.10;;;;;;4937596;29;20951;-48
2021/07/16 07:28:28;;;;;;;10.53;9.63;;;24.90;62.10;;;;;;4941365;29;20204;-45
2021/07/16 07:30:53;;;;;;;10.47;9.17;;;25.00;61.50;;;;;;4953176;28;20231;-46
2021/07/16 07:33:19;;;;;;;10.90;9.63;;;24.80;61.90;;;;;;4953231;29;20723;-46
2021/07/16 07:35:45;;;;;;;9.53;8.63;;;24.90;61.80;;;;;;4952091;29;20207;-51
2021/07/16 07:38:10;;;;;;;8.93;8.13;;;24.90;61.50;;;;;;4946242;29;20197;-45
2021/07/16 07:40:36;;;;;;;9.33;8.57;;;24.90;61.80;;;;;;4952669;29;20255;-45
2021/07/16 07:43:04;;;;;;;10.37;9.37;;;24.90;61.60;;;;;;4947302;28;20296;-48
2021/07/16 07:45:30;;;;;;;9.40;8.53;;;25.00;61.70;;;;;;4945857;28;20203;-45
2021/07/16 07:47:56;;;;;;;10.90;9.90;;;25.10;61.80;;;;;;4953710;29;20423;-49
2021/07/16 07:50:23;;;;;;;9.80;8.80;;;25.10;61.40;;;;;;4951301;29;20502;-46
2021/07/16 07:52:50;;;;;;;12.97;10.50;;;25.00;61.30;;;;;;4933620;29;20476;-45
2021/07/16 07:55:18;;;;;;;9.70;8.80;;;25.00;61.10;;;;;;4935161;29;20432;-46
2021/07/16 07:57:44;;;;;;;8.50;7.60;;;24.90;60.90;;;;;;4952533;28;20435;-52
2021/07/16 08:00:14;;;;;;;8.10;7.50;;;25.00;61.70;;;;;;4934893;29;20440;-48
2021/07/16 08:02:41;;;;;;;8.20;7.60;;;25.00;61.90;;;;;;4952346;29;20436;-45
2021/07/16 08:05:08;;;;;;;7.83;7.13;;;25.00;61.60;;;;;;4950800;28;20440;-51
2021/07/16 08:07:35;;;;;;;7.17;6.60;;;25.10;61.20;;;;;;4941630;28;20493;-46
2021/07/16 08:10:01;;;;;;;7.57;6.97;;;25.10;60.70;;;;;;4951169;29;20436;-48
2021/07/16 08:12:26;;;;;;;8.23;7.53;;;25.10;60.60;;;;;;4951795;29;20999;-45
2021/07/16 08:14:52;;;;;;;9.43;7.70;;;25.00;60.50;;;;;;4951169;29;20196;-46
2021/07/16 08:17:17;;;;;;;9.30;8.50;;;25.00;60.20;;;;;;4951113;29;21198;-47
2021/07/16 08:19:43;;;;;;;9.67;8.83;;;25.00;60.20;;;;;;4949950;29;20240;-47
2021/07/16 08:22:09;;;;;;;7.90;7.30;;;25.10;60.00;;;;;;4935337;29;20243;-49
2021/07/16 08:24:36;;;;;;;7.53;6.80;;;25.20;60.00;;;;;;4950785;29;20238;-48
2021/07/16 08:27:01;;;;;;;7.87;7.27;;;25.20;59.80;;;;;;4935836;29;20543;-45
2021/07/16 08:29:27;;;;;;;6.50;6.00;;;25.20;59.70;;;;;;4943343;29;20192;-46
2021/07/16 08:31:52;;;;;;;8.10;7.50;;;25.20;59.50;;;;;;4951697;29;20299;-48
2021/07/16 08:34:18;;;;;;;13.07;7.90;;;25.30;59.70;;;;;;4951375;29;20226;-50
2021/07/16 08:36:44;;;;;;;8.47;7.70;;;25.40;59.90;;;;;;4944440;28;20207;-47
2021/07/16 08:39:10;;;;;;;7.80;7.07;;;25.40;59.60;;;;;;4946407;29;20211;-48
2021/07/16 08:41:37;;;;;;;7.60;6.90;;;25.40;59.50;;;;;;4944218;28;20441;-47
2021/07/16 08:44:03;;;;;;;7.50;6.90;;;25.50;59.40;;;;;;4949574;29;20443;-46
2021/07/16 08:46:29;;;;;;;8.53;7.73;;;25.50;59.80;;;;;;4951778;29;20439;-51
2021/07/16 08:48:58;;;;;;;7.90;7.20;;;25.60;59.90;;;;;;4950865;29;20454;-46
2021/07/16 08:51:24;;;;;;;7.80;6.87;;;25.70;59.10;;;;;;4944756;28;20239;-48
2021/07/16 08:53:53;;;;;;;7.17;6.67;;;25.70;58.20;;;;;;4950849;29;21222;-45
2021/07/16 08:56:20;;;;;;;6.77;6.17;;;25.70;57.70;;;;;;4948248;29;20542;-48
2021/07/16 08:58:45;;;;;;;6.70;6.20;;;25.80;57.80;;;;;;4951005;28;21005;-46
2021/07/16 09:01:13;;;;;;;6.27;5.77;;;26.00;58.00;;;;;;4951739;29;20435;-47
2021/07/16 09:04:06;;;;;;;5.07;4.67;;;26.10;58.30;;;;;;4949246;28;20267;-46
2021/07/16 09:06:49;;;;;;;7.70;7.10;;;26.50;57.10;;;;;;4948787;29;20443;-45
2021/07/16 09:09:16;;;;;;;5.70;5.10;;;26.20;56.80;;;;;;4959918;28;20462;-47
2021/07/16 09:11:43;;;;;;;5.60;5.10;;;26.50;57.40;;;;;;4952435;29;21025;-46
2021/07/16 09:14:24;;;;;;;6.50;5.87;;;26.70;56.80;;;;;;4946730;29;20874;-46
2021/07/16 09:17:15;;;;;;;5.77;5.27;;;26.80;55.70;;;;;;4942964;29;20955;-48
2021/07/16 09:19:43;;;;;;;5.40;5.00;;;26.80;55.00;;;;;;4942901;29;20510;-46
2021/07/16 09:22:13;;;;;;;5.77;5.37;;;27.00;55.30;;;;;;4953063;29;20447;-51
2021/07/16 09:24:41;;;;;;;4.77;4.47;;;27.00;55.10;;;;;;4952901;29;20459;-46
2021/07/16 09:27:45;;;;;;;5.57;5.07;;;27.00;55.40;;;;;;4952672;28;20440;-45
2021/07/16 09:30:14;;;;;;;5.37;4.07;;;27.10;55.50;;;;;;4898630;29;20460;-46
2021/07/16 09:32:45;;;;;;;4.80;4.50;;;27.10;55.50;;;;;;4954136;29;20452;-46
2021/07/16 09:35:25;;;;;;;5.70;5.30;;;27.10;55.30;;;;;;4952624;28;20451;-46
2021/07/16 09:37:56;;;;;;;6.37;4.57;;;27.20;55.30;;;;;;4954884;28;20444;-46
2021/07/16 09:40:28;;;;;;;5.73;4.30;;;27.30;55.10;;;;;;4953652;29;20440;-47
2021/07/16 09:43:06;;;;;;;11.93;4.30;;;27.30;54.70;;;;;;4946474;29;20447;-48
2021/07/16 09:45:34;;;;;;;7.30;4.03;;;27.40;54.30;;;;;;4947510;29;20489;-48
2021/07/16 09:48:34;;;;;;;4.40;4.10;;;27.40;54.20;;;;;;4954733;29;20486;-46
2021/07/16 09:51:25;;;;;;;4.77;4.47;;;27.50;53.90;;;;;;4952656;29;20955;-46
2021/07/16 09:53:54;;;;;;;4.13;3.83;;;27.60;54.50;;;;;;4950611;29;20502;-45
2021/07/16 09:56:25;;;;;;;5.13;4.10;;;27.80;54.60;;;;;;4948003;29;20444;-46
2021/07/16 09:59:13;;;;;;;4.17;3.87;;;27.80;52.80;;;;;;4943060;28;20871;-47
2021/07/16 10:01:41;;;;;;;4.90;4.47;;;27.90;52.50;;;;;;4952835;29;21014;-50
2021/07/16 10:04:21;;;;;;;5.00;4.60;;;27.90;53.00;;;;;;4952682;29;20836;-49
2021/07/16 10:06:49;;;;;;;4.70;4.10;;;27.90;53.00;;;;;;4952778;29;20438;-46
2021/07/16 10:09:16;;;;;;;6.63;4.53;;;27.80;53.50;;;;;;4944707;29;20433;-46
2021/07/16 10:11:46;;;;;;;4.80;4.40;;;27.80;53.20;;;;;;4948864;28;20522;-48
2021/07/16 10:14:13;;;;;;;4.10;3.80;;;27.80;54.60;;;;;;4954015;28;20827;-46
2021/07/16 10:16:42;;;;;;;4.70;4.13;;;27.80;53.20;;;;;;4952024;28;20451;-50
2021/07/16 10:19:08;;;;;;;4.83;4.43;;;27.90;54.10;;;;;;4955618;28;20479;-49
2021/07/16 10:21:35;;;;;;;4.10;3.87;;;28.10;52.70;;;;;;4951358;28;20438;-46
2021/07/16 10:24:02;;;;;;;4.63;4.20;;;28.20;51.50;;;;;;4949129;28;20498;-46
2021/07/16 10:26:28;;;;;;;5.37;3.33;;;28.40;51.30;;;;;;4952466;29;20475;-48
2021/07/16 10:28:55;;;;;;;6.30;4.40;;;28.50;51.10;;;;;;4960156;28;20444;-47
2021/07/16 10:31:32;;;;;;;3.83;3.53;;;28.60;51.20;;;;;;4953047;29;20487;-49
2021/07/16 10:34:02;;;;;;;5.33;3.10;;;28.70;51.10;;;;;;4955411;28;20548;-50
2021/07/16 10:36:37;;;;;;;3.33;3.13;;;28.80;51.20;;;;;;4965214;28;20438;-51
2021/07/16 10:39:04;;;;;;;3.63;3.33;;;28.80;52.10;;;;;;4966616;28;20458;-46
2021/07/16 10:41:31;;;;;;;3.43;3.23;;;28.90;50.60;;;;;;4953088;29;20436;-48
2021/07/16 10:43:56;;;;;;;3.57;3.33;;;28.90;51.40;;;;;;4954161;28;20463;-47
2021/07/16 10:46:34;;;;;;;4.10;3.80;;;29.10;51.00;;;;;;4965099;28;20450;-46
2021/07/16 10:49:01;;;;;;;4.03;3.80;;;29.20;52.00;;;;;;4952748;28;20204;-46
2021/07/16 10:51:31;;;;;;;3.70;3.50;;;29.30;50.10;;;;;;4948210;29;20487;-48
2021/07/16 10:53:59;;;;;;;4.90;3.37;;;29.30;50.10;;;;;;4950346;29;20438;-46
2021/07/16 10:56:39;;;;;;;3.20;3.00;;;29.40;50.00;;;;;;4936921;29;20436;-48
2021/07/16 10:59:06;;;;;;;3.60;3.40;;;29.60;50.00;;;;;;4952578;28;20447;-51
2021/07/16 11:01:41;;;;;;;3.63;3.23;;;29.80;50.70;;;;;;4953203;28;20574;-46
2021/07/16 11:04:27;;;;;;;4.23;3.83;;;29.90;50.00;;;;;;4953194;28;20450;-46
2021/07/16 11:06:55;;;;;;;4.07;3.77;;;30.10;50.50;;;;;;4936036;29;20803;-47
2021/07/16 11:09:42;;;;;;;3.27;3.07;;;30.30;49.50;;;;;;4941939;29;20432;-48
2021/07/16 11:12:25;;;;;;;3.83;3.60;;;30.50;49.70;;;;;;4952673;28;20501;-46
2021/07/16 11:14:52;;;;;;;3.53;3.30;;;30.50;48.80;;;;;;4953436;29;20823;-48
2021/07/16 11:17:27;;;;;;;3.87;3.67;;;30.60;47.50;;;;;;4950443;29;20826;-46
2021/07/16 11:20:29;;;;;;;3.47;3.27;;;30.80;47.80;;;;;;4953177;29;20934;-50
2021/07/16 11:23:05;;;;;;;3.80;3.50;;;30.80;47.70;;;;;;4935910;28;20451;-45
2021/07/16 11:25:31;;;;;;;3.40;3.20;;;31.00;47.70;;;;;;4937288;28;20783;-47
2021/07/16 11:27:57;;;;;;;4.00;3.70;;;31.00;47.20;;;;;;4941672;29;20515;-49
2021/07/16 11:30:24;;;;;;;4.07;3.73;;;31.00;47.40;;;;;;4952663;29;20428;-49
2021/07/16 11:32:50;;;;;;;3.60;3.33;;;31.20;47.10;;;;;;4952720;29;20447;-47
2021/07/16 11:35:15;;;;;;;3.27;2.97;;;31.40;46.90;;;;;;4950005;29;20775;-46
2021/07/16 11:37:49;;;;;;;3.67;3.43;;;31.30;47.30;;;;;;4943576;29;20615;-47
2021/07/16 11:40:23;;;;;;;3.60;3.30;;;31.40;46.90;;;;;;4952798;28;21251;-47
2021/07/16 11:42:54;;;;;;;3.67;3.40;;;31.40;46.50;;;;;;4955416;28;20447;-47
2021/07/16 11:45:31;;;;;;;3.07;2.77;;;31.40;45.90;;;;;;4952324;29;20490;-46
2021/07/16 11:47:58;;;;;;;3.00;2.80;;;31.40;46.00;;;;;;4953970;28;20443;-46
2021/07/16 11:50:24;;;;;;;2.67;2.53;;;31.30;46.00;;;;;;4958284;28;20439;-46
2021/07/16 11:52:51;;;;;;;2.90;2.73;;;31.30;46.30;;;;;;4942846;28;20509;-46
2021/07/16 11:55:24;;;;;;;2.50;2.30;;;31.40;45.70;;;;;;4952047;29;20220;-46
2021/07/16 11:58:01;;;;;;;2.90;2.70;;;31.40;45.70;;;;;;4951145;29;20462;-46
2021/07/16 12:00:32;;;;;;;4.20;2.63;;;31.30;45.40;;;;;;4950877;28;20826;-46
2021/07/16 12:03:02;;;;;;;2.50;2.40;;;31.30;45.50;;;;;;4951597;28;21001;-46
2021/07/16 12:05:28;;;;;;;2.33;2.23;;;31.20;45.20;;;;;;4956597;28;20452;-46
2021/07/16 12:07:55;;;;;;;2.60;2.50;;;31.20;45.50;;;;;;4954804;28;20448;-48
2021/07/16 12:10:21;;;;;;;2.60;2.40;;;31.00;44.90;;;;;;4956511;28;20848;-49
2021/07/16 12:12:47;;;;;;;2.83;2.63;;;30.80;45.90;;;;;;4958432;28;20510;-47
2021/07/16 12:15:21;;;;;;;3.20;3.00;;;30.80;46.50;;;;;;4962113;28;20428;-50
2021/07/16 12:17:52;;;;;;;2.23;2.13;;;30.60;47.60;;;;;;4961121;28;20874;-48
2021/07/16 12:20:20;;;;;;;2.40;2.20;;;30.70;47.00;;;;;;4963089;28;20443;-47
2021/07/16 12:22:47;;;;;;;2.20;2.00;;;30.70;47.50;;;;;;4962803;28;20497;-47
2021/07/16 12:25:14;;;;;;;2.47;2.27;;;30.80;46.80;;;;;;4958100;28;20491;-48
2021/07/16 12:27:41;;;;;;;2.40;2.20;;;30.70;46.80;;;;;;4958272;28;21334;-48
2021/07/16 12:30:12;;;;;;;2.27;2.17;;;30.90;46.80;;;;;;4959934;28;20530;-50
2021/07/16 12:32:46;;;;;;;2.57;2.47;;;31.00;46.40;;;;;;4961247;28;20582;-47
2021/07/16 12:35:28;;;;;;;2.90;2.70;;;31.10;46.90;;;;;;4961095;28;20471;-50
2021/07/16 12:38:15;;;;;;;2.93;2.73;;;31.00;46.10;;;;;;4955123;28;20454;-47
2021/07/16 12:40:46;;;;;;;2.33;2.23;;;31.00;46.40;;;;;;4952093;28;20455;-49
2021/07/16 12:43:17;;;;;;;2.30;2.20;;;31.10;46.10;;;;;;4949272;28;20443;-49
2021/07/16 12:45:52;;;;;;;2.60;2.40;;;31.10;46.40;;;;;;4962178;28;20439;-49